createdAt,value
2018-07-13T00:04:32.780Z,6.69
2018-07-13T00:10:27.761Z,5.75
2018-07-13T00:16:22.756Z,5.29
2018-07-13T00:22:17.777Z,4.92
2018-07-13T00:28:12.746Z,4.75
2018-07-13T00:34:07.742Z,5.6
2018-07-13T00:40:03.039Z,8.24
2018-07-13T00:45:57.769Z,6.35
2018-07-13T00:51:52.736Z,9.19
2018-07-13T00:57:47.797Z,5.79
2018-07-13T01:03:42.749Z,5.16
2018-07-13T01:09:37.798Z,6.51
2018-07-13T01:15:32.801Z,5.23
2018-07-13T01:21:27.782Z,5.5
2018-07-13T01:27:22.768Z,7.57
2018-07-13T01:33:17.757Z,6.9
2018-07-13T01:39:12.799Z,6.73
2018-07-13T02:08:47.847Z,6.04
2018-07-13T02:08:48.018Z,6.27
2018-07-13T02:08:48.030Z,6.27
2018-07-13T02:08:48.065Z,6.27
2018-07-13T02:08:48.093Z,6.27
2018-07-13T02:14:42.801Z,5.7
2018-07-13T02:20:37.787Z,5.4
2018-07-13T02:26:32.785Z,6.62
2018-07-13T02:32:27.790Z,5.12
2018-07-13T02:38:22.779Z,6.44
2018-07-13T02:44:17.829Z,7.97
2018-07-13T02:50:12.809Z,5.59
2018-07-13T02:56:07.777Z,5.35
2018-07-13T03:02:02.812Z,5
2018-07-13T03:07:57.793Z,5.25
2018-07-13T03:13:52.792Z,5.79
2018-07-13T03:19:47.833Z,7.63
2018-07-13T03:25:42.889Z,4.59
2018-07-13T03:31:37.778Z,7.71
2018-07-13T03:37:32.787Z,8.71
2018-07-13T03:43:27.802Z,5.4
2018-07-13T03:49:22.794Z,5.8
2018-07-13T03:55:17.788Z,8.92
2018-07-13T04:01:12.831Z,6.47
2018-07-13T04:07:07.902Z,7.64
2018-07-13T04:13:02.822Z,6.85
2018-07-13T04:18:57.839Z,6.48
2018-07-13T04:24:52.801Z,7.51
2018-07-13T04:30:47.820Z,10.68
2018-07-13T04:36:42.869Z,6.15
2018-07-13T04:42:37.801Z,8.67
2018-07-13T05:06:17.947Z,6.68
2018-07-13T05:06:17.947Z,4.31
2018-07-13T05:06:17.975Z,6.68
2018-07-13T05:06:18.005Z,6.68
2018-07-13T05:12:12.814Z,7.41
2018-07-13T05:18:07.800Z,10.59
2018-07-13T05:24:02.806Z,10.89
2018-07-13T05:29:57.827Z,8.57
2018-07-13T05:35:52.827Z,11.08
2018-07-13T05:41:47.862Z,9.39
2018-07-13T05:47:42.860Z,10.42
2018-07-13T05:53:37.837Z,14.07
2018-07-13T05:59:32.821Z,12.77
2018-07-13T06:05:27.868Z,10.2
2018-07-13T06:11:22.841Z,11.28
2018-07-13T06:17:17.860Z,15.04
2018-07-13T06:23:12.864Z,9.88
2018-07-13T06:29:07.818Z,14.19
2018-07-13T06:35:02.879Z,10.25
2018-07-13T06:40:57.891Z,10.53
2018-07-13T06:46:52.827Z,11.14
2018-07-13T06:52:47.846Z,9.13
2018-07-13T06:58:42.845Z,7.17
2018-07-13T07:04:37.831Z,8.66
2018-07-13T07:10:32.961Z,10.34
2018-07-13T07:16:27.892Z,8.33
2018-07-13T07:22:22.882Z,10.11
2018-07-13T07:28:17.894Z,16.31
2018-07-13T07:34:12.974Z,10.58
2018-07-13T07:40:07.898Z,8.81
2018-07-13T08:09:42.977Z,10.52
2018-07-13T08:09:43.025Z,11.87
2018-07-13T08:09:43.033Z,11.87
2018-07-13T08:09:43.095Z,11.87
2018-07-13T08:09:43.117Z,11.87
2018-07-13T08:15:37.895Z,14.76
2018-07-13T08:21:32.966Z,10.29
2018-07-13T08:27:27.900Z,11.14
2018-07-13T08:33:22.886Z,11.43
2018-07-13T08:39:17.909Z,7.56
2018-07-13T08:45:12.920Z,13.23
2018-07-13T08:51:07.880Z,8.16
2018-07-13T08:57:02.903Z,7.32
2018-07-13T09:02:57.906Z,7.94
2018-07-13T09:08:52.906Z,8.33
2018-07-13T09:14:47.919Z,7.59
2018-07-13T09:20:42.905Z,6.52
2018-07-13T09:26:37.916Z,4.98
2018-07-13T09:32:32.923Z,7.14
2018-07-13T09:38:28.071Z,8.69
2018-07-13T09:44:22.977Z,5.71
2018-07-13T09:50:17.920Z,4.71
2018-07-13T10:19:52.926Z,5.77
2018-07-13T10:19:53.193Z,7.72
2018-07-13T10:19:53.199Z,7.72
2018-07-13T10:19:53.238Z,7.72
2018-07-13T10:19:53.271Z,7.72
2018-07-13T10:25:47.923Z,5.22
2018-07-13T10:31:42.931Z,5.38
2018-07-13T10:37:37.940Z,5.1
2018-07-13T10:43:32.947Z,7.9
2018-07-13T10:49:27.936Z,8.36
2018-07-13T10:55:22.932Z,6.74
2018-07-13T11:01:17.994Z,3.83
2018-07-13T11:07:12.937Z,4.77
2018-07-13T11:13:07.943Z,5.92
2018-07-13T11:19:02.969Z,4.24
2018-07-13T11:24:57.965Z,6.2
2018-07-13T11:30:53.010Z,4.34
2018-07-13T11:36:48.106Z,2.97
2018-07-13T11:42:42.973Z,4.55
2018-07-13T11:48:37.976Z,4.07
2018-07-13T11:54:32.976Z,5.83
2018-07-13T12:00:28.028Z,3.87
2018-07-13T12:06:22.978Z,4.54
2018-07-13T12:12:17.959Z,2.99
2018-07-13T12:18:13.004Z,5.19
2018-07-13T12:24:07.984Z,4.22
2018-07-13T12:30:02.990Z,4.61
2018-07-13T12:35:57.991Z,4.3
2018-07-13T12:41:52.985Z,3.97
2018-07-13T12:47:48.030Z,5.3
2018-07-13T12:53:42.980Z,3.86
2018-07-13T13:17:23.054Z,4.73
2018-07-13T13:17:23.110Z,3.63
2018-07-13T13:17:23.123Z,3.63
2018-07-13T13:17:23.155Z,3.63
2018-07-13T13:23:18.038Z,5.76
2018-07-13T13:29:13.073Z,3.79
2018-07-13T13:35:08.002Z,3.64
2018-07-13T13:41:03.000Z,3.83
2018-07-13T13:46:58.030Z,5.26
2018-07-13T13:52:53.053Z,3.43
2018-07-13T13:58:48.024Z,5.74
2018-07-13T14:04:43.016Z,6.23
2018-07-13T14:10:38.026Z,3.29
2018-07-13T14:16:33.052Z,8.56
2018-07-13T14:22:28.037Z,3.64
2018-07-13T14:28:23.153Z,3.42
2018-07-13T14:34:18.017Z,3.9
2018-07-13T14:40:13.125Z,5.35
2018-07-13T14:57:58.049Z,3.94
2018-07-13T14:57:58.151Z,5
2018-07-13T14:57:58.157Z,5
2018-07-13T15:03:53.117Z,3.29
2018-07-13T15:09:48.051Z,3.98
2018-07-13T15:15:43.076Z,3.79
2018-07-13T15:21:38.093Z,4.82
2018-07-13T15:27:33.057Z,5.79
2018-07-13T15:33:28.078Z,4.13
2018-07-13T15:39:23.063Z,4.15
2018-07-13T15:45:18.114Z,3.51
2018-07-13T15:51:13.079Z,6.67
2018-07-13T15:57:08.069Z,4.29
2018-07-13T16:20:48.100Z,3.99
2018-07-13T16:20:48.113Z,5.89
2018-07-13T16:20:48.169Z,5.89
2018-07-13T16:20:48.177Z,5.89
2018-07-13T16:26:43.127Z,6.36
2018-07-13T16:32:38.082Z,3.68
2018-07-13T16:38:33.087Z,3.03
2018-07-13T16:44:28.095Z,4.77
2018-07-13T16:50:23.132Z,3.99
2018-07-13T16:56:18.113Z,3.65
2018-07-13T17:02:13.120Z,3
2018-07-13T17:08:08.134Z,4.71
2018-07-13T17:14:03.091Z,2.32
2018-07-13T17:19:58.132Z,4.88
2018-07-13T17:25:53.108Z,5.33
2018-07-13T17:31:48.108Z,4.67
2018-07-13T17:37:43.130Z,3.97
2018-07-13T17:43:38.113Z,3.38
2018-07-13T17:49:33.097Z,3.09
2018-07-13T17:55:28.158Z,5.33
2018-07-13T18:01:23.126Z,6.5
2018-07-13T18:07:18.174Z,5.63
2018-07-13T18:13:13.151Z,5.2
2018-07-13T18:19:08.146Z,5.56
2018-07-13T18:25:03.123Z,5.51
2018-07-13T18:30:58.141Z,3.58
2018-07-13T18:36:53.201Z,6.1
2018-07-13T18:42:48.129Z,5.96
2018-07-13T18:48:43.188Z,3.65
2018-07-13T18:54:38.138Z,5.11
2018-07-13T19:18:18.171Z,3.78
2018-07-13T19:18:18.361Z,5.22
2018-07-13T19:18:18.364Z,5.22
2018-07-13T19:18:18.403Z,5.22
2018-07-13T19:24:13.156Z,3.62
2018-07-13T19:30:08.172Z,3.51
2018-07-13T19:36:03.208Z,3.61
2018-07-13T19:41:58.171Z,6.49
2018-07-13T19:47:53.190Z,4.4
2018-07-13T19:53:48.145Z,2.79
2018-07-13T19:59:43.177Z,3.31
2018-07-13T20:05:38.244Z,3.69
2018-07-13T20:11:33.231Z,5.28
2018-07-13T20:17:28.167Z,2.73
2018-07-13T20:23:23.218Z,4.27
2018-07-13T20:29:18.244Z,5.15
2018-07-13T20:35:13.193Z,3.62
2018-07-13T20:41:08.173Z,3
2018-07-13T20:47:03.183Z,3.36
2018-07-13T20:52:58.193Z,5.17
2018-07-13T20:58:53.211Z,4.16
2018-07-13T21:04:48.200Z,4.7
2018-07-13T21:10:43.201Z,4.47
2018-07-13T21:16:38.191Z,5.25
2018-07-13T21:22:33.193Z,3.75
2018-07-13T21:28:28.195Z,4.05
2018-07-13T21:34:23.214Z,6.98
2018-07-13T21:40:18.209Z,5.28
2018-07-13T21:46:13.206Z,4.72
2018-07-13T21:52:08.227Z,5.93
2018-07-13T21:58:03.288Z,3.28
2018-07-13T22:21:43.227Z,3.02
2018-07-13T22:21:43.430Z,3.89
2018-07-13T22:21:43.529Z,3.89
2018-07-13T22:21:43.598Z,3.89
2018-07-13T22:27:38.286Z,4.44
2018-07-13T22:33:33.224Z,4.38
2018-07-13T22:39:28.282Z,3.38
2018-07-13T22:45:23.232Z,6.45
2018-07-13T22:51:18.242Z,5.67
2018-07-13T22:57:13.304Z,8.97
2018-07-13T23:03:08.364Z,5.05
2018-07-13T23:09:03.245Z,2.74
2018-07-13T23:14:58.270Z,5.12
2018-07-13T23:20:53.253Z,5.56
2018-07-13T23:26:48.256Z,4.45
2018-07-13T23:32:43.254Z,3.13
2018-07-13T23:38:38.281Z,3.68
2018-07-13T23:44:33.290Z,3.85
2018-07-13T23:50:28.273Z,4.89
2018-07-13T23:56:23.335Z,2.69
